Time;durP1;ratioP1;P1;durP2;ratioP2;P2;SDS_P1;SDS_P2;PMS_P1;PMS_P2;Temp;Humidity;BMP_temperature;BMP_pressure;BME280_temperature;BME280_humidity;BME280_pressure;Samples;Min_cycle;Max_cycle;Signal;HPM_P1;HPM_P2
2022/10/01 00:00:55;;;;;;;2.35;0.90;;;;;;;;;;4987600;28;20036;-84
2022/10/01 00:03:22;;;;;;;2.90;1.33;;;;;;;;;;4984971;28;20029;-86
2022/10/01 00:06:00;;;;;;;2.70;1.10;;;;;;;;;;4984398;28;20048;-86
2022/10/01 00:08:27;;;;;;;4.43;1.25;;;;;;;;;;4984399;28;20033;-86
2022/10/01 00:10:53;;;;;;;2.55;1.08;;;;;;;;;;4984427;28;20476;-87
2022/10/01 00:13:19;;;;;;;2.70;1.30;;;;;;;;;;4984225;28;20033;-87
2022/10/01 00:15:47;;;;;;;2.13;1.17;;;;;;;;;;4983925;28;20036;-86
2022/10/01 00:18:14;;;;;;;2.47;1.25;;;;;;;;;;5000385;28;20099;-86
2022/10/01 00:20:44;;;;;;;2.55;1.05;;;;;;;;;;4984269;28;20029;-85
2022/10/01 00:23:13;;;;;;;2.50;1.05;;;;;;;;;;4984613;28;20029;-86
2022/10/01 00:25:39;;;;;;;3.65;1.67;;;;;;;;;;4984423;28;20034;-86
2022/10/01 00:28:06;;;;;;;2.92;1.00;;;;;;;;;;4983719;28;20041;-86
2022/10/01 00:30:33;;;;;;;2.20;0.98;;;;;;;;;;4983824;28;20030;-86
2022/10/01 00:32:59;;;;;;;1.55;0.77;;;;;;;;;;5000274;28;20041;-86
2022/10/01 00:35:25;;;;;;;2.38;1.15;;;;;;;;;;4983685;28;20033;-86
2022/10/01 00:37:53;;;;;;;2.47;1.10;;;;;;;;;;4999978;28;20040;-86
2022/10/01 00:40:20;;;;;;;3.03;1.20;;;;;;;;;;4983331;28;20032;-86
2022/10/01 00:42:47;;;;;;;2.60;0.93;;;;;;;;;;4982656;28;20025;-87
2022/10/01 00:45:15;;;;;;;2.38;0.70;;;;;;;;;;4982865;28;20858;-87
2022/10/01 00:47:43;;;;;;;2.17;0.82;;;;;;;;;;4984160;28;20120;-87
2022/10/01 00:50:16;;;;;;;0.88;0.60;;;;;;;;;;5000173;28;20117;-87
2022/10/01 00:52:45;;;;;;;2.13;0.73;;;;;;;;;;4999794;28;20029;-88
2022/10/01 00:55:24;;;;;;;3.38;1.00;;;;;;;;;;4980734;28;20030;-88
2022/10/01 00:57:50;;;;;;;2.42;1.00;;;;;;;;;;4964849;28;20384;-87
2022/10/01 01:00:18;;;;;;;2.03;0.70;;;;;;;;;;4980447;28;20124;-87
2022/10/01 01:02:43;;;;;;;2.10;0.80;;;;;;;;;;4980671;28;20032;-87
2022/10/01 01:05:12;;;;;;;1.83;0.90;;;;;;;;;;4996193;28;20113;-87
2022/10/01 01:07:42;;;;;;;1.95;0.93;;;;;;;;;;5013058;28;20037;-87
2022/10/01 01:10:09;;;;;;;2.75;1.20;;;;;;;;;;4964388;28;20033;-87
2022/10/01 01:12:51;;;;;;;2.67;0.98;;;;;;;;;;5012465;28;20088;-87
2022/10/01 01:15:27;;;;;;;1.40;0.77;;;;;;;;;;4979937;28;20125;-86
2022/10/01 01:18:01;;;;;;;2.20;0.68;;;;;;;;;;4980022;28;20033;-87
2022/10/01 01:21:13;;;;;;;2.03;0.80;;;;;;;;;;4979828;28;20469;-86
2022/10/01 01:23:50;;;;;;;1.45;0.70;;;;;;;;;;5008461;28;20042;-87
2022/10/01 01:26:41;;;;;;;2.65;0.88;;;;;;;;;;4979918;28;20064;-87
2022/10/01 01:29:17;;;;;;;1.92;1.00;;;;;;;;;;4963978;28;20034;-87
2022/10/01 01:31:45;;;;;;;1.25;0.50;;;;;;;;;;4964603;28;20411;-87
2022/10/01 01:34:13;;;;;;;1.80;0.82;;;;;;;;;;5012356;28;20033;-86
2022/10/01 01:36:41;;;;;;;2.00;0.80;;;;;;;;;;4979753;28;20044;-87
2022/10/01 01:39:08;;;;;;;1.83;0.73;;;;;;;;;;4963729;28;20077;-87
2022/10/01 01:41:37;;;;;;;2.00;0.88;;;;;;;;;;4963471;28;20029;-87
2022/10/01 01:44:05;;;;;;;1.90;0.90;;;;;;;;;;4962904;28;20496;-87
2022/10/01 01:46:32;;;;;;;1.52;0.57;;;;;;;;;;4963883;28;20030;-88
2022/10/01 01:49:00;;;;;;;2.28;0.77;;;;;;;;;;4965900;28;20035;-88
2022/10/01 01:51:42;;;;;;;2.22;0.77;;;;;;;;;;4983248;28;20072;-87
2022/10/01 01:54:08;;;;;;;1.88;0.70;;;;;;;;;;4983053;28;20029;-87
2022/10/01 01:56:36;;;;;;;1.25;0.60;;;;;;;;;;5017907;28;20045;-87
2022/10/01 01:59:02;;;;;;;1.77;0.95;;;;;;;;;;4986237;28;20112;-87
2022/10/01 02:01:40;;;;;;;2.03;0.70;;;;;;;;;;4994554;28;20030;-86
2022/10/01 02:04:19;;;;;;;1.67;0.68;;;;;;;;;;4980085;28;20030;-87
2022/10/01 02:07:16;;;;;;;1.02;0.52;;;;;;;;;;4979703;28;20539;-86
2022/10/01 02:09:47;;;;;;;1.77;0.73;;;;;;;;;;4995908;28;20040;-86
2022/10/01 02:12:37;;;;;;;1.35;0.55;;;;;;;;;;4978945;28;20034;-85
2022/10/01 02:15:10;;;;;;;1.85;0.60;;;;;;;;;;4981189;28;20124;-87
2022/10/01 02:17:58;;;;;;;2.05;0.60;;;;;;;;;;4979507;28;20530;-86
2022/10/01 02:20:34;;;;;;;2.78;0.60;;;;;;;;;;4963215;28;20025;-88
2022/10/01 02:23:09;;;;;;;1.48;0.60;;;;;;;;;;4979809;28;20034;-87
2022/10/01 02:25:42;;;;;;;1.45;0.60;;;;;;;;;;4979895;28;20816;-87
2022/10/01 02:28:15;;;;;;;1.23;0.40;;;;;;;;;;4979236;28;20038;-86
2022/10/01 02:30:43;;;;;;;1.23;0.65;;;;;;;;;;4979025;28;20026;-86
2022/10/01 02:33:12;;;;;;;1.45;0.70;;;;;;;;;;4979472;28;20119;-85
2022/10/01 02:35:39;;;;;;;1.20;0.40;;;;;;;;;;4978806;28;20034;-86
2022/10/01 02:38:05;;;;;;;1.80;0.45;;;;;;;;;;4978665;28;20038;-86
2022/10/01 02:40:33;;;;;;;1.98;0.57;;;;;;;;;;4978036;28;20041;-85
2022/10/01 02:43:01;;;;;;;1.25;0.60;;;;;;;;;;4978249;28;20395;-85
2022/10/01 02:45:30;;;;;;;1.15;0.50;;;;;;;;;;4978140;28;20117;-85
2022/10/01 02:48:08;;;;;;;2.05;0.52;;;;;;;;;;4986201;28;20025;-87
2022/10/01 02:50:54;;;;;;;1.10;0.50;;;;;;;;;;4982353;28;20021;-86
2022/10/01 02:53:28;;;;;;;1.95;0.50;;;;;;;;;;4997956;28;20037;-86
2022/10/01 02:55:55;;;;;;;1.13;0.30;;;;;;;;;;5044418;28;20055;-85
2022/10/01 02:58:20;;;;;;;1.33;0.60;;;;;;;;;;4985059;28;20029;-86
2022/10/01 03:00:47;;;;;;;0.95;0.47;;;;;;;;;;5021254;28;20104;-87
2022/10/01 03:03:13;;;;;;;0.98;0.40;;;;;;;;;;4970827;28;20034;-86
2022/10/01 03:05:40;;;;;;;0.88;0.40;;;;;;;;;;4985940;28;20091;-86
2022/10/01 03:08:06;;;;;;;0.82;0.30;;;;;;;;;;4969304;28;20033;-86
2022/10/01 03:10:32;;;;;;;1.23;0.40;;;;;;;;;;4985525;28;20040;-86
2022/10/01 03:13:00;;;;;;;1.58;0.77;;;;;;;;;;4985544;28;20037;-85
2022/10/01 03:15:25;;;;;;;3.22;0.80;;;;;;;;;;5001826;28;20092;-84
2022/10/01 03:17:52;;;;;;;1.38;0.57;;;;;;;;;;4985094;28;20779;-86
2022/10/01 03:20:18;;;;;;;2.75;0.68;;;;;;;;;;4985411;28;20029;-86
2022/10/01 03:22:44;;;;;;;0.85;0.32;;;;;;;;;;4985001;28;20037;-86
2022/10/01 03:25:10;;;;;;;0.73;0.30;;;;;;;;;;5001765;28;20060;-87
2022/10/01 03:27:35;;;;;;;0.57;0.22;;;;;;;;;;5001813;28;20045;-87
2022/10/01 03:30:02;;;;;;;1.45;0.50;;;;;;;;;;5001749;28;20029;-87
2022/10/01 03:32:28;;;;;;;0.85;0.30;;;;;;;;;;5001851;28;20033;-88
2022/10/01 03:34:55;;;;;;;0.68;0.22;;;;;;;;;;4985481;28;20036;-86
2022/10/01 03:37:21;;;;;;;1.13;0.45;;;;;;;;;;5001231;28;20033;-87
2022/10/01 03:39:47;;;;;;;1.13;0.50;;;;;;;;;;4985536;28;20041;-87
2022/10/01 03:42:12;;;;;;;1.10;0.35;;;;;;;;;;4985224;28;20100;-85
2022/10/01 03:44:37;;;;;;;1.27;0.38;;;;;;;;;;4984735;28;20053;-85
2022/10/01 03:47:03;;;;;;;1.00;0.40;;;;;;;;;;4969164;28;20037;-87
2022/10/01 03:49:29;;;;;;;0.90;0.35;;;;;;;;;;5001028;28;20048;-86
2022/10/01 03:51:56;;;;;;;1.50;0.70;;;;;;;;;;5000644;28;20037;-86
2022/10/01 03:54:21;;;;;;;1.17;0.40;;;;;;;;;;4986098;28;20028;-86
2022/10/01 03:56:47;;;;;;;0.95;0.40;;;;;;;;;;4988238;28;20037;-86
2022/10/01 03:59:13;;;;;;;1.30;0.40;;;;;;;;;;4988182;28;20068;-85
2022/10/01 04:01:38;;;;;;;1.40;0.40;;;;;;;;;;4978693;28;20384;-85
2022/10/01 04:04:04;;;;;;;1.42;0.40;;;;;;;;;;4980631;28;20044;-86
2022/10/01 04:06:32;;;;;;;0.80;0.40;;;;;;;;;;4981096;28;20368;-86
2022/10/01 04:08:57;;;;;;;0.95;0.30;;;;;;;;;;4980975;28;20037;-86
2022/10/01 04:11:24;;;;;;;1.23;0.55;;;;;;;;;;4980320;28;20029;-86
2022/10/01 04:13:50;;;;;;;1.23;0.40;;;;;;;;;;4981279;28;20116;-86
2022/10/01 04:16:15;;;;;;;0.63;0.22;;;;;;;;;;4980921;28;20053;-85
2022/10/01 04:18:42;;;;;;;1.02;0.30;;;;;;;;;;4980945;28;20459;-86
2022/10/01 04:21:08;;;;;;;0.73;0.28;;;;;;;;;;4980648;28;20053;-86
2022/10/01 04:23:34;;;;;;;0.73;0.22;;;;;;;;;;4981011;28;20113;-86
2022/10/01 04:26:01;;;;;;;0.85;0.47;;;;;;;;;;4980730;28;20042;-86
2022/10/01 04:28:27;;;;;;;0.60;0.17;;;;;;;;;;4964709;28;20049;-85
2022/10/01 04:31:23;;;;;;;0.90;0.45;;;;;;;;;;4980621;28;20041;-85
2022/10/01 04:33:39;;;;;;;1.33;0.40;;;;;;;;;;4969329;28;20571;-84
2022/10/01 04:36:04;;;;;;;0.45;0.20;;;;;;;;;;4964443;28;20030;-85
2022/10/01 04:38:30;;;;;;;0.70;0.30;;;;;;;;;;4964355;28;20484;-85
2022/10/01 04:40:55;;;;;;;0.43;0.20;;;;;;;;;;4980160;28;20029;-84
2022/10/01 04:43:20;;;;;;;0.90;0.30;;;;;;;;;;4979744;28;20480;-84
2022/10/01 04:45:46;;;;;;;0.55;0.35;;;;;;;;;;4980006;28;20773;-84
2022/10/01 04:48:11;;;;;;;0.70;0.20;;;;;;;;;;4988655;28;20447;-85
2022/10/01 04:50:37;;;;;;;0.90;0.35;;;;;;;;;;4999308;28;20392;-84
2022/10/01 04:53:02;;;;;;;0.30;0.20;;;;;;;;;;4999635;28;20056;-84
2022/10/01 04:55:28;;;;;;;0.47;0.13;;;;;;;;;;5009660;28;20037;-84
2022/10/01 04:57:53;;;;;;;0.95;0.38;;;;;;;;;;5002847;28;20395;-85
2022/10/01 05:00:20;;;;;;;1.00;0.30;;;;;;;;;;4986289;28;20402;-84
2022/10/01 05:02:47;;;;;;;0.70;0.30;;;;;;;;;;4984919;28;20025;-84
2022/10/01 05:05:13;;;;;;;1.48;0.20;;;;;;;;;;4980099;28;20073;-83
2022/10/01 05:07:39;;;;;;;0.55;0.15;;;;;;;;;;4963933;28;20053;-84
2022/10/01 05:10:06;;;;;;;0.30;0.10;;;;;;;;;;4979544;28;20045;-83
2022/10/01 05:12:32;;;;;;;0.63;0.28;;;;;;;;;;4947378;28;20029;-83
2022/10/01 05:14:57;;;;;;;0.50;0.20;;;;;;;;;;4963419;28;20037;-83
2022/10/01 05:17:23;;;;;;;1.58;0.20;;;;;;;;;;4979396;28;20369;-83
2022/10/01 05:19:48;;;;;;;0.68;0.20;;;;;;;;;;4979268;28;20388;-83
2022/10/01 05:22:15;;;;;;;0.32;0.17;;;;;;;;;;4979152;28;20029;-83
2022/10/01 05:24:40;;;;;;;0.55;0.20;;;;;;;;;;4963412;28;20045;-85
2022/10/01 05:27:12;;;;;;;0.75;0.30;;;;;;;;;;4979590;28;20025;-84
2022/10/01 05:29:38;;;;;;;0.43;0.30;;;;;;;;;;4965048;28;20069;-84
2022/10/01 05:32:04;;;;;;;0.50;0.30;;;;;;;;;;4979417;28;20356;-84
2022/10/01 05:34:29;;;;;;;0.40;0.10;;;;;;;;;;4979194;28;20052;-84
2022/10/01 05:36:55;;;;;;;1.27;0.10;;;;;;;;;;4979255;28;20112;-83
2022/10/01 05:39:20;;;;;;;0.98;0.30;;;;;;;;;;4978886;28;20377;-84
2022/10/01 05:41:46;;;;;;;0.68;0.20;;;;;;;;;;4963109;28;20362;-83
2022/10/01 05:44:11;;;;;;;1.00;0.30;;;;;;;;;;4978676;28;20400;-83
2022/10/01 05:46:37;;;;;;;0.70;0.20;;;;;;;;;;4978779;28;20049;-83
2022/10/01 05:49:02;;;;;;;0.60;0.20;;;;;;;;;;4994144;28;20369;-83
2022/10/01 05:51:29;;;;;;;0.95;0.10;;;;;;;;;;4998224;28;20033;-84
2022/10/01 05:53:55;;;;;;;0.95;0.13;;;;;;;;;;4998627;28;20029;-84
2022/10/01 05:56:20;;;;;;;0.40;0.20;;;;;;;;;;5015498;28;20602;-81
2022/10/01 05:58:45;;;;;;;0.70;0.20;;;;;;;;;;5017840;28;20044;-82
2022/10/01 06:01:12;;;;;;;2.70;0.30;;;;;;;;;;4981529;28;20391;-82
2022/10/01 06:03:37;;;;;;;1.52;0.30;;;;;;;;;;4998238;28;20030;-83
2022/10/01 06:06:04;;;;;;;3.08;0.50;;;;;;;;;;4983770;28;20045;-82
2022/10/01 06:08:32;;;;;;;1.70;0.22;;;;;;;;;;4985805;28;20091;-83
2022/10/01 06:10:59;;;;;;;1.58;0.30;;;;;;;;;;5000967;28;20041;-82
2022/10/01 06:13:25;;;;;;;7.93;0.70;;;;;;;;;;5001239;28;20064;-83
2022/10/01 06:15:50;;;;;;;3.03;0.57;;;;;;;;;;4985874;28;20045;-82
2022/10/01 06:18:16;;;;;;;1.13;0.20;;;;;;;;;;4984739;28;20053;-83
2022/10/01 06:20:41;;;;;;;2.63;0.40;;;;;;;;;;5000342;28;20617;-86
2022/10/01 06:23:11;;;;;;;4.15;0.40;;;;;;;;;;5000186;28;20088;-85
2022/10/01 06:25:37;;;;;;;2.05;0.30;;;;;;;;;;5001592;28;20065;-86
2022/10/01 06:28:04;;;;;;;3.75;0.85;;;;;;;;;;4984574;28;20039;-85
2022/10/01 06:30:31;;;;;;;2.85;0.50;;;;;;;;;;4984023;28;20108;-85
2022/10/01 06:33:04;;;;;;;5.57;0.68;;;;;;;;;;4984084;28;20033;-84
2022/10/01 06:35:30;;;;;;;5.07;0.52;;;;;;;;;;4984319;28;20029;-84
2022/10/01 06:37:55;;;;;;;9.35;1.30;;;;;;;;;;4984804;28;20021;-84
2022/10/01 06:40:21;;;;;;;5.28;0.77;;;;;;;;;;5001257;28;20040;-85
2022/10/01 06:42:47;;;;;;;6.03;0.60;;;;;;;;;;5002233;28;20046;-85
2022/10/01 06:45:15;;;;;;;3.95;0.50;;;;;;;;;;4969187;28;20104;-85
2022/10/01 06:47:40;;;;;;;6.30;1.05;;;;;;;;;;5000290;28;20017;-85
2022/10/01 06:50:06;;;;;;;7.18;1.30;;;;;;;;;;4969076;28;20080;-84
2022/10/01 06:52:50;;;;;;;5.63;0.77;;;;;;;;;;4984247;28;20764;-84
2022/10/01 06:55:16;;;;;;;7.15;1.10;;;;;;;;;;5003365;28;20037;-84
2022/10/01 06:57:43;;;;;;;11.60;1.55;;;;;;;;;;4984887;28;20022;-85
2022/10/01 07:00:09;;;;;;;6.50;1.63;;;;;;;;;;4983586;28;20057;-84
2022/10/01 07:02:35;;;;;;;8.43;2.05;;;;;;;;;;4996015;28;20037;-83
2022/10/01 07:05:01;;;;;;;12.02;4.18;;;;;;;;;;4963620;28;20498;-84
2022/10/01 07:07:31;;;;;;;25.80;11.13;;;;;;;;;;4977933;28;20105;-84
2022/10/01 07:09:57;;;;;;;40.75;21.95;;;;;;;;;;4978188;28;20357;-84
2022/10/01 07:12:23;;;;;;;45.50;26.02;;;;;;;;;;4977879;28;20125;-84
2022/10/01 07:14:49;;;;;;;53.50;30.80;;;;;;;;;;4977645;28;20555;-84
2022/10/01 07:17:14;;;;;;;51.90;32.13;;;;;;;;;;4961904;28;20037;-83
2022/10/01 07:19:40;;;;;;;60.88;37.00;;;;;;;;;;4961850;28;20396;-85
2022/10/01 07:22:05;;;;;;;72.50;41.47;;;;;;;;;;4961610;28;20041;-84
2022/10/01 07:24:33;;;;;;;64.30;40.70;;;;;;;;;;4977448;28;20060;-84
2022/10/01 07:26:58;;;;;;;68.65;40.08;;;;;;;;;;4977965;28;20034;-84
2022/10/01 07:29:24;;;;;;;60.75;37.47;;;;;;;;;;4961658;28;20033;-84
2022/10/01 07:31:50;;;;;;;61.63;37.72;;;;;;;;;;4977606;28;20380;-84
2022/10/01 07:34:16;;;;;;;53.83;34.17;;;;;;;;;;4961913;28;20112;-84
2022/10/01 07:36:44;;;;;;;60.10;33.70;;;;;;;;;;4978386;28;20363;-85
2022/10/01 07:39:10;;;;;;;58.00;32.97;;;;;;;;;;4964732;28;20030;-84
2022/10/01 07:41:36;;;;;;;46.80;31.67;;;;;;;;;;4980792;28;20026;-84
2022/10/01 07:44:02;;;;;;;59.47;32.40;;;;;;;;;;4963529;28;20038;-83
2022/10/01 07:46:28;;;;;;;57.53;34.78;;;;;;;;;;4984025;28;20057;-87
2022/10/01 07:48:55;;;;;;;53.63;33.10;;;;;;;;;;4997389;28;20388;-87
2022/10/01 07:51:20;;;;;;;59.50;32.95;;;;;;;;;;4987950;28;20021;-87
2022/10/01 07:53:49;;;;;;;138.27;84.20;;;;;;;;;;4971424;28;20029;-87
2022/10/01 07:56:16;;;;;;;117.88;70.72;;;;;;;;;;5007835;28;20028;-89
2022/10/01 07:58:42;;;;;;;103.55;64.75;;;;;;;;;;5008846;28;20036;-87
2022/10/01 08:01:09;;;;;;;111.18;64.88;;;;;;;;;;4988311;28;20021;-87
2022/10/01 08:03:34;;;;;;;111.43;66.20;;;;;;;;;;4999422;28;20033;-86
2022/10/01 08:06:04;;;;;;;124.75;80.90;;;;;;;;;;4984125;28;20029;-87
2022/10/01 08:08:30;;;;;;;118.35;72.72;;;;;;;;;;4985136;28;20029;-87
2022/10/01 08:10:55;;;;;;;112.80;68.82;;;;;;;;;;5013086;28;20044;-86
2022/10/01 08:13:24;;;;;;;111.47;69.30;;;;;;;;;;5003654;28;20037;-87
2022/10/01 08:15:52;;;;;;;107.63;70.20;;;;;;;;;;5004323;28;20090;-85
2022/10/01 08:18:18;;;;;;;115.25;70.32;;;;;;;;;;5003894;28;20044;-84
2022/10/01 08:20:47;;;;;;;116.28;70.18;;;;;;;;;;5003817;28;20027;-89
2022/10/01 08:23:13;;;;;;;116.07;72.20;;;;;;;;;;5003671;28;20040;-84
2022/10/01 08:25:39;;;;;;;103.32;67.15;;;;;;;;;;5003563;28;20075;-86
2022/10/01 08:28:05;;;;;;;107.32;65.75;;;;;;;;;;5003300;28;20041;-84
2022/10/01 08:30:31;;;;;;;107.63;66.18;;;;;;;;;;5003491;28;20068;-80
2022/10/01 08:32:57;;;;;;;105.45;64.50;;;;;;;;;;5019226;28;20060;-82
2022/10/01 08:35:23;;;;;;;103.05;64.03;;;;;;;;;;5003316;28;20043;-82
2022/10/01 08:37:49;;;;;;;108.40;65.00;;;;;;;;;;5003182;28;20462;-83
2022/10/01 08:40:14;;;;;;;95.88;60.33;;;;;;;;;;5002891;28;20035;-82
2022/10/01 08:42:43;;;;;;;104.40;60.30;;;;;;;;;;5002509;28;20045;-82
2022/10/01 08:45:12;;;;;;;88.03;54.47;;;;;;;;;;5019048;28;20040;-82
2022/10/01 08:47:39;;;;;;;90.47;52.67;;;;;;;;;;5015088;28;20061;-82
2022/10/01 08:50:34;;;;;;;121.22;75.03;;;;;;;;;;4983462;28;20030;-82
2022/10/01 08:53:01;;;;;;;108.53;64.13;;;;;;;;;;5008907;28;20052;-81
2022/10/01 08:55:34;;;;;;;97.72;60.20;;;;;;;;;;5019023;28;20028;-82
2022/10/01 08:58:01;;;;;;;89.03;58.88;;;;;;;;;;5003962;28;20094;-81
2022/10/01 09:00:27;;;;;;;99.05;63.53;;;;;;;;;;5018830;28;20025;-81
2022/10/01 09:02:59;;;;;;;93.45;60.03;;;;;;;;;;4983853;28;20048;-81
2022/10/01 09:05:54;;;;;;;89.15;56.78;;;;;;;;;;4978925;28;20495;-81
2022/10/01 09:08:47;;;;;;;95.35;58.80;;;;;;;;;;4995942;28;20041;-81
2022/10/01 09:11:31;;;;;;;92.88;56.03;;;;;;;;;;5011815;28;20488;-81
2022/10/01 09:14:03;;;;;;;88.53;54.97;;;;;;;;;;5014274;28;20099;-81
2022/10/01 09:16:34;;;;;;;82.27;52.47;;;;;;;;;;5015134;28;20061;-81
2022/10/01 09:19:30;;;;;;;90.95;52.50;;;;;;;;;;4982966;28;20491;-81
2022/10/01 09:21:57;;;;;;;83.38;49.97;;;;;;;;;;5000434;28;20030;-82
2022/10/01 09:24:40;;;;;;;86.90;51.70;;;;;;;;;;5015352;28;20041;-81
2022/10/01 09:27:23;;;;;;;83.22;51.92;;;;;;;;;;5000670;28;20056;-81
2022/10/01 09:30:00;;;;;;;78.70;48.13;;;;;;;;;;4982741;28;20029;-81
2022/10/01 09:32:40;;;;;;;80.78;47.78;;;;;;;;;;4999495;28;20084;-81
2022/10/01 09:35:19;;;;;;;88.35;49.83;;;;;;;;;;4999550;28;20036;-81
2022/10/01 09:37:56;;;;;;;79.07;48.90;;;;;;;;;;5015659;28;20087;-81
2022/10/01 09:40:38;;;;;;;75.32;46.85;;;;;;;;;;4982026;28;20040;-82
2022/10/01 09:43:03;;;;;;;140.63;87.03;;;;;;;;;;4982472;28;20109;-81
2022/10/01 09:45:29;;;;;;;119.75;73.60;;;;;;;;;;4982285;28;20045;-81
2022/10/01 09:47:57;;;;;;;110.70;67.70;;;;;;;;;;4982185;28;20380;-81
2022/10/01 09:50:54;;;;;;;112.97;68.32;;;;;;;;;;4962569;28;20120;-81
2022/10/01 09:53:20;;;;;;;102.25;64.07;;;;;;;;;;4973404;28;20148;-81
2022/10/01 09:55:51;;;;;;;102.25;63.50;;;;;;;;;;4987584;28;20033;-81
2022/10/01 09:58:17;;;;;;;108.43;66.85;;;;;;;;;;5001856;28;20068;-81
2022/10/01 10:00:43;;;;;;;101.80;62.25;;;;;;;;;;5001211;28;20399;-81
2022/10/01 10:03:08;;;;;;;98.75;61.50;;;;;;;;;;4979995;28;20034;-81
2022/10/01 10:05:45;;;;;;;102.00;63.38;;;;;;;;;;5011131;28;20042;-80
2022/10/01 10:08:14;;;;;;;103.30;62.70;;;;;;;;;;4997478;28;20073;-80
2022/10/01 10:10:50;;;;;;;99.57;59.63;;;;;;;;;;4981118;28;20029;-80
2022/10/01 10:13:40;;;;;;;94.72;57.72;;;;;;;;;;4998429;28;20034;-81
2022/10/01 10:16:26;;;;;;;96.10;54.50;;;;;;;;;;4987255;28;20045;-80
2022/10/01 10:18:55;;;;;;;94.00;57.08;;;;;;;;;;4983611;28;20029;-81
2022/10/01 10:21:24;;;;;;;87.43;53.40;;;;;;;;;;4997861;28;20029;-81
2022/10/01 10:23:55;;;;;;;79.35;50.67;;;;;;;;;;4997900;28;20053;-80
2022/10/01 10:26:24;;;;;;;86.05;51.67;;;;;;;;;;4998098;28;20041;-82
2022/10/01 10:28:50;;;;;;;82.55;49.25;;;;;;;;;;5014024;28;20053;-81
2022/10/01 10:31:19;;;;;;;78.47;48.70;;;;;;;;;;4997701;28;20060;-81
2022/10/01 10:33:54;;;;;;;71.32;45.25;;;;;;;;;;5014285;28;20032;-81
2022/10/01 10:36:27;;;;;;;79.50;46.25;;;;;;;;;;4998186;28;20117;-81
2022/10/01 10:38:53;;;;;;;68.10;44.80;;;;;;;;;;4997570;28;20084;-81
2022/10/01 10:41:24;;;;;;;69.13;44.40;;;;;;;;;;4981496;28;20030;-81
2022/10/01 10:43:50;;;;;;;70.82;45.45;;;;;;;;;;4998245;28;20526;-80
2022/10/01 10:46:28;;;;;;;69.38;45.10;;;;;;;;;;4980932;28;20069;-81
2022/10/01 10:49:29;;;;;;;66.93;43.45;;;;;;;;;;4986634;28;20160;-81
2022/10/01 10:51:56;;;;;;;70.38;42.28;;;;;;;;;;5013481;28;20044;-81
2022/10/01 10:54:38;;;;;;;66.53;42.88;;;;;;;;;;4998789;28;20388;-81
2022/10/01 10:57:29;;;;;;;62.85;41.00;;;;;;;;;;5001722;28;20059;-81
2022/10/01 11:00:11;;;;;;;62.50;38.72;;;;;;;;;;5051303;28;20429;-81
2022/10/01 11:02:38;;;;;;;57.13;36.75;;;;;;;;;;4992015;28;20037;-82
2022/10/01 11:05:20;;;;;;;57.85;37.60;;;;;;;;;;4997595;28;20080;-80
2022/10/01 11:07:46;;;;;;;53.35;33.70;;;;;;;;;;4998354;28;20021;-80
2022/10/01 11:10:27;;;;;;;52.38;34.33;;;;;;;;;;4997280;28;20037;-82
2022/10/01 11:13:13;;;;;;;50.47;33.58;;;;;;;;;;5013210;28;20794;-81
2022/10/01 11:15:52;;;;;;;46.55;30.88;;;;;;;;;;5029919;28;20065;-82
2022/10/01 11:18:39;;;;;;;59.85;33.45;;;;;;;;;;5013660;28;20038;-81
2022/10/01 11:21:10;;;;;;;46.38;29.02;;;;;;;;;;5033861;28;20060;-83
2022/10/01 11:23:57;;;;;;;44.70;29.75;;;;;;;;;;5017334;28;20064;-82
2022/10/01 11:26:24;;;;;;;42.47;28.50;;;;;;;;;;5035710;28;20034;-82
2022/10/01 11:28:56;;;;;;;39.35;26.17;;;;;;;;;;5001023;28;20037;-82
2022/10/01 11:31:29;;;;;;;41.42;27.20;;;;;;;;;;4985934;28;20029;-82
2022/10/01 11:34:00;;;;;;;43.33;28.15;;;;;;;;;;5002865;28;20072;-81
2022/10/01 11:36:46;;;;;;;41.35;27.42;;;;;;;;;;5036181;28;20507;-81
2022/10/01 11:39:16;;;;;;;42.42;26.13;;;;;;;;;;5033104;28;20553;-82
2022/10/01 11:41:44;;;;;;;40.17;25.70;;;;;;;;;;4990385;28;20017;-82
2022/10/01 11:44:23;;;;;;;37.53;24.00;;;;;;;;;;5015992;28;20045;-82
2022/10/01 11:47:23;;;;;;;36.45;24.80;;;;;;;;;;5025649;28;20037;-82
2022/10/01 11:50:24;;;;;;;34.22;22.10;;;;;;;;;;4981283;28;20624;-82
2022/10/01 11:53:04;;;;;;;34.15;20.70;;;;;;;;;;4992499;28;20041;-81
2022/10/01 12:01:29;;;;;;;36.00;21.08;;;;;;;;;;5002792;28;20041;-82
2022/10/01 12:04:21;;;;;;;30.08;19.27;;;;;;;;;;5014715;28;20100;-81
2022/10/01 12:06:58;;;;;;;32.15;19.33;;;;;;;;;;5038793;28;20780;-82
2022/10/01 12:09:28;;;;;;;33.17;18.30;;;;;;;;;;5036889;28;20036;-81
2022/10/01 12:12:03;;;;;;;30.05;19.70;;;;;;;;;;5004047;28;20472;-83
2022/10/01 12:15:06;;;;;;;26.92;17.83;;;;;;;;;;4997778;28;20465;-83
2022/10/01 12:17:35;;;;;;;31.85;19.23;;;;;;;;;;5006632;28;20022;-83
2022/10/01 12:20:00;;;;;;;33.63;18.48;;;;;;;;;;4966949;28;20026;-82
2022/10/01 12:22:30;;;;;;;33.60;18.67;;;;;;;;;;4996765;28;20400;-82
2022/10/01 12:24:55;;;;;;;28.92;17.15;;;;;;;;;;4996584;28;20105;-83
2022/10/01 12:27:48;;;;;;;27.20;17.98;;;;;;;;;;4980502;28;20120;-82
2022/10/01 12:30:19;;;;;;;28.23;16.80;;;;;;;;;;4996526;28;20030;-82
2022/10/01 12:33:03;;;;;;;26.20;15.75;;;;;;;;;;4979084;28;20038;-81
2022/10/01 12:35:50;;;;;;;22.52;15.27;;;;;;;;;;4996577;28;20026;-82
2022/10/01 12:38:49;;;;;;;25.65;14.43;;;;;;;;;;5002114;28;20379;-82
2022/10/01 12:41:25;;;;;;;24.42;15.45;;;;;;;;;;4998135;28;20496;-82
2022/10/01 12:44:19;;;;;;;24.08;14.27;;;;;;;;;;4985155;28;20502;-82
2022/10/01 12:46:51;;;;;;;23.10;14.93;;;;;;;;;;5035372;28;20549;-82
2022/10/01 12:49:35;;;;;;;25.00;15.15;;;;;;;;;;4981636;28;20033;-82
2022/10/01 12:52:07;;;;;;;29.77;15.52;;;;;;;;;;4980140;28;20032;-82
2022/10/01 12:54:33;;;;;;;;;;;;;;;;;;4985627;28;20036;-82
2022/10/01 12:57:08;;;;;;;30.25;15.30;;;;;;;;;;5019013;28;19916;-82
2022/10/01 12:59:43;;;;;;;23.25;14.32;;;;;;;;;;5003272;28;20025;-82
2022/10/01 13:02:53;;;;;;;21.15;13.77;;;;;;;;;;5043079;28;20081;-82
2022/10/01 13:05:19;;;;;;;21.75;13.00;;;;;;;;;;4971843;28;20042;-82
2022/10/01 13:07:51;;;;;;;22.92;13.82;;;;;;;;;;5024187;28;20375;-81
2022/10/01 13:10:32;;;;;;;;;;;;;;;;;;4999891;28;20033;-82
2022/10/01 13:13:01;;;;;;;24.08;13.70;;;;;;;;;;5033181;28;19967;-82
2022/10/01 13:15:48;;;;;;;22.73;12.48;;;;;;;;;;5015452;28;20034;-82
2022/10/01 13:18:28;;;;;;;20.65;12.02;;;;;;;;;;4999597;28;20028;-82
2022/10/01 13:21:04;;;;;;;20.00;12.43;;;;;;;;;;4999344;28;20025;-82
2022/10/01 13:23:53;;;;;;;19.92;12.43;;;;;;;;;;5016056;28;20038;-82
2022/10/01 13:26:28;;;;;;;17.90;12.60;;;;;;;;;;5001224;28;20037;-82
2022/10/01 13:29:09;;;;;;;21.65;12.23;;;;;;;;;;4999758;28;20083;-82
2022/10/01 13:31:37;;;;;;;20.33;11.85;;;;;;;;;;5031245;28;20387;-82
2022/10/01 13:34:23;;;;;;;16.90;11.35;;;;;;;;;;4979285;28;20488;-82
2022/10/01 13:36:48;;;;;;;20.50;11.73;;;;;;;;;;4963659;28;20034;-82
2022/10/01 13:39:23;;;;;;;21.70;12.48;;;;;;;;;;4995662;28;20380;-82
2022/10/01 13:41:52;;;;;;;16.52;9.73;;;;;;;;;;4978767;28;20061;-82
2022/10/01 13:44:32;;;;;;;18.30;11.43;;;;;;;;;;4978596;28;20077;-82
2022/10/01 13:47:05;;;;;;;16.60;9.73;;;;;;;;;;4979124;28;20042;-82
2022/10/01 13:49:32;;;;;;;16.25;11.00;;;;;;;;;;4998312;28;20036;-82
2022/10/01 13:51:58;;;;;;;15.88;9.45;;;;;;;;;;4982482;28;20112;-81
2022/10/01 13:54:36;;;;;;;16.27;9.98;;;;;;;;;;4983546;28;20128;-81
2022/10/01 13:57:35;;;;;;;14.77;10.50;;;;;;;;;;5017827;28;20099;-81
2022/10/01 14:00:11;;;;;;;17.00;10.18;;;;;;;;;;5007929;28;20071;-81
2022/10/01 14:02:38;;;;;;;17.10;9.93;;;;;;;;;;5021568;28;20044;-81
2022/10/01 14:05:15;;;;;;;15.52;9.65;;;;;;;;;;4998310;28;20033;-81
2022/10/01 14:07:41;;;;;;;14.38;9.27;;;;;;;;;;5030990;28;20037;-81
2022/10/01 14:10:08;;;;;;;17.67;9.48;;;;;;;;;;4997829;28;20515;-81
2022/10/01 14:18:20;;;;;;;12.93;8.63;;;;;;;;;;5003056;28;20104;-81
2022/10/01 14:21:27;;;;;;;13.38;8.60;;;;;;;;;;4998017;28;20172;-81
2022/10/01 14:23:55;;;;;;;16.38;8.43;;;;;;;;;;4953661;28;20030;-82
2022/10/01 14:26:38;;;;;;;15.77;9.10;;;;;;;;;;4954664;28;20501;-83
2022/10/01 14:29:31;;;;;;;18.45;7.78;;;;;;;;;;4982188;28;20072;-82
2022/10/01 14:32:11;;;;;;;;;;;;;;;;;;5014600;28;20040;-81
2022/10/01 14:34:46;;;;;;;17.02;8.18;;;;;;;;;;5014088;28;20248;-81
2022/10/01 14:37:13;;;;;;;17.95;7.88;;;;;;;;;;4979262;28;20061;-82
2022/10/01 14:39:38;;;;;;;14.88;8.18;;;;;;;;;;4997985;28;20041;-82
2022/10/01 14:42:09;;;;;;;15.82;7.95;;;;;;;;;;4996488;28;20047;-81
2022/10/01 14:44:40;;;;;;;14.65;7.63;;;;;;;;;;4995558;28;20057;-81
2022/10/01 14:47:31;;;;;;;20.25;9.20;;;;;;;;;;5003534;28;20033;-81
2022/10/01 14:49:56;;;;;;;15.43;7.72;;;;;;;;;;4994222;28;20080;-82
2022/10/01 14:52:24;;;;;;;33.53;21.52;;;;;;;;;;4977748;28;20567;-82
2022/10/01 14:54:57;;;;;;;28.15;19.33;;;;;;;;;;4987644;28;20076;-82
2022/10/01 14:57:31;;;;;;;27.88;19.55;;;;;;;;;;4999141;28;20037;-81
2022/10/01 14:59:58;;;;;;;24.65;18.17;;;;;;;;;;5021870;28;20406;-82
2022/10/01 15:02:24;;;;;;;22.30;16.75;;;;;;;;;;5004543;28;20503;-82
2022/10/01 15:04:51;;;;;;;24.83;15.35;;;;;;;;;;4996011;28;20037;-82
2022/10/01 15:07:16;;;;;;;21.15;14.90;;;;;;;;;;5004208;28;20048;-82